createdAt,value
2018-06-29T15:35:03.957Z,43.37
2018-06-29T15:37:34.523Z,43.71
2018-06-29T15:40:05.065Z,43.41
2018-06-29T15:42:36.177Z,41.44
2018-06-29T15:45:07.038Z,40.99
2018-06-29T15:47:38.565Z,40.77
2018-06-29T15:50:12.799Z,40.13
2018-06-29T15:52:43.352Z,38.88
2018-06-29T15:55:14.029Z,39.07
2018-06-29T15:57:50.363Z,37.58
2018-06-29T16:00:22.130Z,37.54
2018-06-29T16:02:52.557Z,37.59
2018-06-29T16:05:23.102Z,36.91
2018-06-29T16:07:53.883Z,38.43
2018-06-29T16:10:24.595Z,37.56
2018-06-29T16:12:55.401Z,37.88
2018-06-29T16:15:26.469Z,38.83
2018-06-29T16:17:57.279Z,37.99
2018-06-29T16:20:28.019Z,38.43
2018-06-29T16:22:58.973Z,38.58
2018-06-29T16:25:30.741Z,40.32
2018-06-29T16:28:02.736Z,40.12
2018-06-29T16:30:35.949Z,39.38
2018-06-29T16:33:07.400Z,38.63
2018-06-29T16:35:45.019Z,39.69
2018-06-29T16:38:31.661Z,39.51
2018-06-29T16:41:02.150Z,40.50
2018-06-29T16:46:24.500Z,40.16
2018-06-29T16:49:05.591Z,41.62
2018-06-29T16:51:47.863Z,40.65
2018-06-29T16:54:18.732Z,41.51
2018-06-29T16:56:56.201Z,39.97
2018-06-29T16:59:31.829Z,40.66
2018-06-29T17:02:03.730Z,40.69
2018-06-29T17:04:45.836Z,40.21
2018-06-29T17:10:25.177Z,41.82
2018-06-29T17:13:04.764Z,42.81
2018-06-29T17:15:46.505Z,41.33
2018-06-29T17:25:39.739Z,41.09
2018-06-29T17:28:11.092Z,42.08
2018-06-29T17:30:44.201Z,41.89
2018-06-29T17:36:21.694Z,42.27
2018-06-29T17:39:08.462Z,43.94
2018-06-29T17:44:34.869Z,44.01
2018-06-29T17:47:08.246Z,45.06
2018-06-29T17:49:46.077Z,44.64
2018-06-29T17:52:19.635Z,44.31
2018-06-29T17:54:51.797Z,45.16
2018-06-29T17:57:22.527Z,45.84
2018-06-29T17:59:53.954Z,46.71
2018-06-29T18:05:14.605Z,47.26
2018-06-29T18:07:55.798Z,46.62
2018-06-29T18:10:32.269Z,46.61
2018-06-29T18:22:21.013Z,46.35
2018-06-29T18:25:11.961Z,46.76
2018-06-29T18:27:59.300Z,46.78
2018-06-29T18:39:37.129Z,47.18
2018-06-29T19:03:51.852Z,55.58
2018-06-29T19:21:36.120Z,59.15
2018-06-29T19:27:04.983Z,59.11
2018-06-29T19:35:21.347Z,60.32
2018-06-29T20:22:35.120Z,64.54
2018-06-29T20:25:17.934Z,64.91
2018-06-29T21:36:05.520Z,70.96
2018-06-29T21:39:47.110Z,71.25
2018-06-29T21:48:41.637Z,71.80
2018-06-29T22:03:14.165Z,73.22
